Time;durP1;ratioP1;P1;durP2;ratioP2;P2;SDS_P1;SDS_P2;PMS_P1;PMS_P2;Temp;Humidity;BMP_temperature;BMP_pressure;BME280_temperature;BME280_humidity;BME280_pressure;Samples;Min_cycle;Max_cycle;Signal;HPM_P1;HPM_P2
2022/11/22 00:00:28;;;;;;;8.82;2.28;;;;;;;;;;5092285;28;20049;-76
2022/11/22 00:02:54;;;;;;;12.02;2.20;;;;;;;;;;5091962;28;20020;-76
2022/11/22 00:05:21;;;;;;;7.95;1.65;;;;;;;;;;5092298;28;20404;-75
2022/11/22 00:07:47;;;;;;;7.00;1.65;;;;;;;;;;5092470;28;20042;-76
2022/11/22 00:10:14;;;;;;;13.00;1.95;;;;;;;;;;5092349;28;20024;-76
2022/11/22 00:12:41;;;;;;;12.68;2.22;;;;;;;;;;5092080;28;20026;-76
2022/11/22 00:15:08;;;;;;;14.80;1.92;;;;;;;;;;5092182;28;20538;-76
2022/11/22 00:17:34;;;;;;;12.05;1.90;;;;;;;;;;5092048;28;20016;-76
2022/11/22 00:20:01;;;;;;;11.82;2.17;;;;;;;;;;5092115;28;20036;-76
2022/11/22 00:22:27;;;;;;;15.27;2.15;;;;;;;;;;5092374;28;20031;-75
2022/11/22 00:24:53;;;;;;;11.23;1.98;;;;;;;;;;5092074;28;20028;-76
2022/11/22 00:27:20;;;;;;;11.18;2.28;;;;;;;;;;5092041;28;20013;-76
2022/11/22 00:29:46;;;;;;;14.50;2.03;;;;;;;;;;5092763;28;20021;-76
2022/11/22 00:32:13;;;;;;;11.02;1.75;;;;;;;;;;5095867;28;20489;-76
2022/11/22 00:34:39;;;;;;;9.63;2.00;;;;;;;;;;5077921;28;20028;-76
2022/11/22 00:37:06;;;;;;;9.50;1.73;;;;;;;;;;5096010;28;20083;-76
2022/11/22 00:39:32;;;;;;;11.25;2.08;;;;;;;;;;5095757;28;20506;-76
2022/11/22 00:41:58;;;;;;;13.27;1.77;;;;;;;;;;5096084;28;20024;-76
2022/11/22 00:44:25;;;;;;;10.98;1.83;;;;;;;;;;5061146;28;20038;-76
2022/11/22 00:46:51;;;;;;;11.15;1.50;;;;;;;;;;5095648;28;20021;-76
2022/11/22 00:49:17;;;;;;;13.25;2.03;;;;;;;;;;5096148;28;20046;-76
2022/11/22 00:51:43;;;;;;;13.00;1.88;;;;;;;;;;5095674;28;20026;-76
2022/11/22 00:54:10;;;;;;;11.77;2.30;;;;;;;;;;5095634;28;20032;-76
2022/11/22 00:56:36;;;;;;;14.70;1.95;;;;;;;;;;5095837;28;20038;-76
2022/11/22 00:59:03;;;;;;;13.80;2.05;;;;;;;;;;5095583;28;20040;-76
2022/11/22 01:01:29;;;;;;;9.68;1.50;;;;;;;;;;5095335;28;20016;-76
2022/11/22 01:03:55;;;;;;;10.93;1.77;;;;;;;;;;5095714;28;20027;-76
2022/11/22 01:06:22;;;;;;;15.77;2.47;;;;;;;;;;5095448;28;20108;-76
2022/11/22 01:08:48;;;;;;;13.25;2.13;;;;;;;;;;5095376;28;20400;-76
2022/11/22 01:11:16;;;;;;;11.38;1.80;;;;;;;;;;5095485;28;20016;-76
2022/11/22 01:13:42;;;;;;;11.02;1.63;;;;;;;;;;5095336;28;20028;-76
2022/11/22 01:16:09;;;;;;;9.40;1.70;;;;;;;;;;5094799;28;20023;-76
2022/11/22 01:18:35;;;;;;;15.82;2.13;;;;;;;;;;5095065;28;20323;-76
2022/11/22 01:21:02;;;;;;;9.05;1.70;;;;;;;;;;5095278;28;20023;-76
2022/11/22 01:23:29;;;;;;;9.30;1.35;;;;;;;;;;5095228;28;20034;-76
2022/11/22 01:25:56;;;;;;;12.55;1.90;;;;;;;;;;5095398;28;20028;-76
2022/11/22 01:28:22;;;;;;;12.00;1.88;;;;;;;;;;5093679;28;20032;-76
2022/11/22 01:30:52;;;;;;;12.30;1.77;;;;;;;;;;5094805;28;20017;-76
2022/11/22 01:33:19;;;;;;;9.65;2.00;;;;;;;;;;5095009;28;20511;-76
2022/11/22 01:35:45;;;;;;;13.55;2.08;;;;;;;;;;5094921;28;20028;-76
2022/11/22 01:38:12;;;;;;;16.02;1.80;;;;;;;;;;5094862;28;20048;-76
2022/11/22 01:40:38;;;;;;;10.73;1.70;;;;;;;;;;5094441;28;20046;-76
2022/11/22 01:43:13;;;;;;;10.30;1.48;;;;;;;;;;5093903;28;20040;-76
2022/11/22 01:45:41;;;;;;;15.32;1.80;;;;;;;;;;5094195;28;20032;-76
2022/11/22 01:48:25;;;;;;;7.03;1.65;;;;;;;;;;5094805;28;20020;-76
2022/11/22 01:50:57;;;;;;;15.80;2.38;;;;;;;;;;5094493;28;20501;-76
2022/11/22 01:53:27;;;;;;;9.30;1.50;;;;;;;;;;5094541;28;20028;-76
2022/11/22 01:55:54;;;;;;;8.25;1.55;;;;;;;;;;5094686;28;20054;-76
2022/11/22 01:58:21;;;;;;;11.75;1.88;;;;;;;;;;5094088;28;20389;-75
2022/11/22 02:00:47;;;;;;;10.30;1.77;;;;;;;;;;5094550;28;20382;-76
2022/11/22 02:03:14;;;;;;;12.50;1.80;;;;;;;;;;5094729;28;20036;-76
2022/11/22 02:05:41;;;;;;;15.75;1.92;;;;;;;;;;5094304;28;20028;-76
2022/11/22 02:08:07;;;;;;;9.55;1.67;;;;;;;;;;5094406;28;20038;-76
2022/11/22 02:10:34;;;;;;;16.25;1.60;;;;;;;;;;5094250;28;20024;-76
2022/11/22 02:13:01;;;;;;;10.70;1.90;;;;;;;;;;5094040;28;20036;-76
2022/11/22 02:15:28;;;;;;;9.18;1.40;;;;;;;;;;5094585;28;20028;-76
2022/11/22 02:17:56;;;;;;;9.35;2.00;;;;;;;;;;5094210;28;20028;-76
2022/11/22 02:20:22;;;;;;;8.32;1.48;;;;;;;;;;5093815;28;19957;-76
2022/11/22 02:23:03;;;;;;;3.65;1.30;;;;;;;;;;5094005;28;20028;-76
2022/11/22 02:25:41;;;;;;;8.27;1.63;;;;;;;;;;5094221;28;20054;-76
2022/11/22 02:28:12;;;;;;;9.68;1.75;;;;;;;;;;5093591;28;20264;-76
2022/11/22 02:30:39;;;;;;;5.82;1.25;;;;;;;;;;5094090;28;20034;-76
2022/11/22 02:33:05;;;;;;;6.95;1.50;;;;;;;;;;5093660;28;20473;-76
2022/11/22 02:35:32;;;;;;;8.02;1.23;;;;;;;;;;5093956;28;20392;-76
2022/11/22 02:38:03;;;;;;;9.75;1.60;;;;;;;;;;5093368;28;20040;-76
2022/11/22 02:40:33;;;;;;;12.25;2.30;;;;;;;;;;5093694;28;20038;-76
2022/11/22 02:43:02;;;;;;;7.20;1.67;;;;;;;;;;5093261;28;20034;-76
2022/11/22 02:45:29;;;;;;;10.70;2.17;;;;;;;;;;5093759;28;20404;-76
2022/11/22 02:48:08;;;;;;;8.88;1.58;;;;;;;;;;5092495;28;20036;-76
2022/11/22 02:50:35;;;;;;;7.93;1.50;;;;;;;;;;5093333;28;20489;-76
2022/11/22 02:53:01;;;;;;;5.95;1.25;;;;;;;;;;5093004;28;20034;-76
2022/11/22 02:55:27;;;;;;;15.57;2.30;;;;;;;;;;5093424;28;20020;-76
2022/11/22 02:57:54;;;;;;;8.77;1.83;;;;;;;;;;5092975;28;20442;-76
2022/11/22 03:00:21;;;;;;;5.10;1.23;;;;;;;;;;5093143;28;20373;-76
2022/11/22 03:02:47;;;;;;;7.35;1.30;;;;;;;;;;5058718;28;20028;-76
2022/11/22 03:05:13;;;;;;;10.27;1.73;;;;;;;;;;5093230;28;20024;-76
2022/11/22 03:07:40;;;;;;;9.35;1.35;;;;;;;;;;5093466;28;20028;-76
2022/11/22 03:10:06;;;;;;;5.22;1.23;;;;;;;;;;5093326;28;20050;-76
2022/11/22 03:12:32;;;;;;;6.82;1.40;;;;;;;;;;5092872;28;20024;-76
2022/11/22 03:14:59;;;;;;;6.20;1.40;;;;;;;;;;5092983;28;20057;-76
2022/11/22 03:17:25;;;;;;;4.20;1.40;;;;;;;;;;5093182;28;20038;-76
2022/11/22 03:19:51;;;;;;;7.18;1.30;;;;;;;;;;5092832;28;20032;-76
2022/11/22 03:22:18;;;;;;;8.45;1.27;;;;;;;;;;5093089;28;20024;-76
2022/11/22 03:24:44;;;;;;;5.60;1.42;;;;;;;;;;5092762;28;20040;-76
2022/11/22 03:27:10;;;;;;;6.97;1.00;;;;;;;;;;5092311;28;20028;-76
2022/11/22 03:29:36;;;;;;;6.88;1.55;;;;;;;;;;5092722;28;20400;-76
2022/11/22 03:32:03;;;;;;;10.15;1.63;;;;;;;;;;5092669;28;20031;-76
2022/11/22 03:34:29;;;;;;;4.00;0.85;;;;;;;;;;5092704;28;20511;-76
2022/11/22 03:36:55;;;;;;;5.20;1.10;;;;;;;;;;5092989;28;20024;-76
2022/11/22 03:39:22;;;;;;;5.65;1.08;;;;;;;;;;5092455;28;20046;-76
2022/11/22 03:41:48;;;;;;;5.05;1.00;;;;;;;;;;5091976;28;20489;-76
2022/11/22 03:44:14;;;;;;;5.20;1.13;;;;;;;;;;5092729;28;20365;-76
2022/11/22 03:46:41;;;;;;;6.80;1.60;;;;;;;;;;5092557;28;20026;-76
2022/11/22 03:49:07;;;;;;;6.85;1.10;;;;;;;;;;5092235;28;20032;-76
2022/11/22 03:51:33;;;;;;;3.70;0.98;;;;;;;;;;5092783;28;20020;-76
2022/11/22 03:54:00;;;;;;;2.55;1.00;;;;;;;;;;5092407;28;20023;-76
2022/11/22 03:56:26;;;;;;;3.25;0.98;;;;;;;;;;5091803;28;20034;-76
2022/11/22 03:58:53;;;;;;;2.60;0.63;;;;;;;;;;5092302;28;20035;-76
2022/11/22 04:01:19;;;;;;;6.30;0.75;;;;;;;;;;5092209;28;20481;-76
2022/11/22 04:03:45;;;;;;;1.17;0.70;;;;;;;;;;5092549;28;20085;-76
2022/11/22 04:06:12;;;;;;;1.17;0.50;;;;;;;;;;5091825;28;20020;-76
2022/11/22 04:08:38;;;;;;;1.05;0.45;;;;;;;;;;5092465;28;20062;-78
2022/11/22 04:11:04;;;;;;;1.33;0.50;;;;;;;;;;5091686;28;20044;-76
2022/11/22 04:16:16;;;;;;;2.70;0.50;;;;;;;;;;5092249;28;20024;-76
2022/11/22 04:18:42;;;;;;;2.38;0.60;;;;;;;;;;5092342;28;20582;-76
2022/11/22 04:26:38;;;;;;;3.03;0.30;;;;;;;;;;5092174;28;20020;-76
2022/11/22 04:29:05;;;;;;;0.60;0.40;;;;;;;;;;5092207;28;20035;-76
2022/11/22 04:34:16;;;;;;;1.65;0.43;;;;;;;;;;5092159;28;20016;-76
2022/11/22 04:36:42;;;;;;;0.85;0.40;;;;;;;;;;5092220;28;20507;-76
2022/11/22 04:39:09;;;;;;;0.63;0.40;;;;;;;;;;5090193;28;20044;-76
2022/11/22 04:41:35;;;;;;;1.52;0.60;;;;;;;;;;5092046;28;20046;-76
2022/11/22 04:46:46;;;;;;;1.58;0.52;;;;;;;;;;5092234;28;20024;-76
2022/11/22 04:49:12;;;;;;;0.98;0.40;;;;;;;;;;5092217;28;20028;-76
2022/11/22 04:54:24;;;;;;;0.88;0.50;;;;;;;;;;5091706;28;20081;-75
2022/11/22 04:56:50;;;;;;;0.90;0.45;;;;;;;;;;5091783;28;20024;-75
2022/11/22 04:59:16;;;;;;;2.78;0.40;;;;;;;;;;5092087;28;20521;-76
2022/11/22 05:01:42;;;;;;;2.40;0.30;;;;;;;;;;5091907;28;20383;-76
2022/11/22 05:04:09;;;;;;;0.65;0.22;;;;;;;;;;5092256;28;20085;-75
2022/11/22 05:06:36;;;;;;;1.00;0.30;;;;;;;;;;5092046;28;20381;-76
2022/11/22 05:09:02;;;;;;;0.93;0.20;;;;;;;;;;5091371;28;20137;-76
2022/11/22 05:11:28;;;;;;;3.45;0.50;;;;;;;;;;5091953;28;20032;-76
2022/11/22 05:13:55;;;;;;;1.73;0.57;;;;;;;;;;5091743;28;20026;-75
2022/11/22 05:16:21;;;;;;;0.85;0.40;;;;;;;;;;5091978;28;20582;-75
2022/11/22 05:18:57;;;;;;;4.68;0.63;;;;;;;;;;5095265;28;20024;-76
2022/11/22 05:21:25;;;;;;;3.08;1.20;;;;;;;;;;5095289;28;20058;-75
2022/11/22 05:23:55;;;;;;;3.10;1.00;;;;;;;;;;5095210;28;20024;-75
2022/11/22 05:26:26;;;;;;;6.88;2.72;;;;;;;;;;5094944;28;20408;-75
2022/11/22 05:28:52;;;;;;;10.82;4.95;;;;;;;;;;5093602;28;20028;-76
2022/11/22 05:31:23;;;;;;;18.92;8.82;;;;;;;;;;5095184;28;20038;-75
2022/11/22 05:33:51;;;;;;;14.30;6.80;;;;;;;;;;5095286;28;20024;-76
2022/11/22 05:36:17;;;;;;;15.93;6.97;;;;;;;;;;5094818;28;20027;-76
2022/11/22 05:38:44;;;;;;;7.32;3.00;;;;;;;;;;5094723;28;20062;-76
2022/11/22 05:41:11;;;;;;;8.82;3.97;;;;;;;;;;5094943;28;20026;-76
2022/11/22 05:43:37;;;;;;;2.17;0.65;;;;;;;;;;5094731;28;20507;-75
2022/11/22 05:46:05;;;;;;;6.28;2.28;;;;;;;;;;5095038;28;20024;-76
2022/11/22 05:48:31;;;;;;;8.10;3.50;;;;;;;;;;5094645;28;20016;-76
2022/11/22 05:50:58;;;;;;;13.57;6.22;;;;;;;;;;5094434;28;20032;-76
2022/11/22 05:53:24;;;;;;;4.22;1.42;;;;;;;;;;5095079;28;20042;-75
2022/11/22 05:55:50;;;;;;;7.88;3.40;;;;;;;;;;5094755;28;20032;-76
2022/11/22 05:58:17;;;;;;;14.57;5.20;;;;;;;;;;5094300;28;20020;-76
2022/11/22 06:00:43;;;;;;;37.42;13.45;;;;;;;;;;5094732;28;20032;-76
2022/11/22 06:03:09;;;;;;;11.55;5.78;;;;;;;;;;5094694;28;20020;-76
2022/11/22 06:05:35;;;;;;;1.48;0.90;;;;;;;;;;5094049;28;20016;-76
2022/11/22 06:08:02;;;;;;;2.83;1.38;;;;;;;;;;5094189;28;20457;-76
2022/11/22 06:10:28;;;;;;;2.97;0.70;;;;;;;;;;5094537;28;20024;-76
2022/11/22 06:12:55;;;;;;;0.88;0.40;;;;;;;;;;5094430;28;20038;-76
2022/11/22 06:15:21;;;;;;;6.80;2.20;;;;;;;;;;5094223;28;20020;-76
2022/11/22 06:17:47;;;;;;;3.78;1.50;;;;;;;;;;5093791;28;20050;-76
2022/11/22 06:20:14;;;;;;;5.50;1.15;;;;;;;;;;5093637;28;20046;-76
2022/11/22 06:22:40;;;;;;;0.57;0.45;;;;;;;;;;5094132;28;20028;-76
2022/11/22 06:25:07;;;;;;;4.22;0.88;;;;;;;;;;5092800;28;20054;-76
2022/11/22 06:27:33;;;;;;;1.35;0.70;;;;;;;;;;5093487;28;20020;-76
2022/11/22 06:30:00;;;;;;;4.57;0.80;;;;;;;;;;5076006;28;20032;-76
2022/11/22 06:32:26;;;;;;;0.68;0.63;;;;;;;;;;5093533;28;20032;-76
2022/11/22 06:34:52;;;;;;;2.25;1.05;;;;;;;;;;5093647;28;20016;-76
2022/11/22 06:37:19;;;;;;;2.55;1.05;;;;;;;;;;5093403;28;20048;-75
2022/11/22 06:39:45;;;;;;;4.22;1.15;;;;;;;;;;5093367;28;20032;-74
2022/11/22 06:42:11;;;;;;;8.27;2.45;;;;;;;;;;5093959;28;20032;-76
2022/11/22 06:44:38;;;;;;;13.50;5.30;;;;;;;;;;5093746;28;20031;-76
2022/11/22 06:47:04;;;;;;;3.13;1.33;;;;;;;;;;5093532;28;20366;-76
2022/11/22 06:49:30;;;;;;;12.85;5.68;;;;;;;;;;5093549;28;20057;-76
2022/11/22 06:51:56;;;;;;;10.95;4.60;;;;;;;;;;5093231;28;20030;-74
2022/11/22 06:54:23;;;;;;;4.55;1.83;;;;;;;;;;5093479;28;20481;-75
2022/11/22 06:56:49;;;;;;;4.40;2.08;;;;;;;;;;5093425;28;20427;-74
2022/11/22 06:59:16;;;;;;;2.83;1.50;;;;;;;;;;5093327;28;20072;-75
2022/11/22 07:01:42;;;;;;;8.88;4.90;;;;;;;;;;5092926;28;20045;-75
2022/11/22 07:04:09;;;;;;;6.50;3.40;;;;;;;;;;5092652;28;20036;-74
2022/11/22 07:06:37;;;;;;;13.15;4.82;;;;;;;;;;5092416;28;20035;-75
2022/11/22 07:09:05;;;;;;;10.52;3.65;;;;;;;;;;5074134;28;20016;-75
2022/11/22 07:11:32;;;;;;;22.38;7.97;;;;;;;;;;5086706;28;20021;-74
2022/11/22 07:14:00;;;;;;;8.43;2.85;;;;;;;;;;5078883;28;20419;-75
2022/11/22 07:16:26;;;;;;;11.98;5.10;;;;;;;;;;5103684;28;20020;-74
2022/11/22 07:18:52;;;;;;;9.13;4.45;;;;;;;;;;5080489;28;20390;-74
2022/11/22 07:21:23;;;;;;;7.10;3.63;;;;;;;;;;5092666;28;20029;-74
2022/11/22 07:23:50;;;;;;;2.03;1.30;;;;;;;;;;5090512;28;20024;-74
2022/11/22 07:26:18;;;;;;;3.25;1.73;;;;;;;;;;5090597;28;20393;-74
2022/11/22 07:28:45;;;;;;;10.73;5.38;;;;;;;;;;5087499;28;20034;-74
2022/11/22 07:31:12;;;;;;;23.80;12.00;;;;;;;;;;5081925;28;20516;-75
2022/11/22 07:33:39;;;;;;;28.23;15.52;;;;;;;;;;5071688;28;20503;-75
2022/11/22 07:36:06;;;;;;;3.65;2.40;;;;;;;;;;5072297;28;20061;-75
2022/11/22 07:38:33;;;;;;;13.25;7.18;;;;;;;;;;5080888;28;20043;-74
2022/11/22 07:41:00;;;;;;;26.45;11.88;;;;;;;;;;5097312;28;20458;-74
2022/11/22 07:43:26;;;;;;;15.98;6.82;;;;;;;;;;5090707;28;20024;-76
2022/11/22 07:45:53;;;;;;;25.00;11.52;;;;;;;;;;5086746;28;20373;-75
2022/11/22 07:48:19;;;;;;;4.57;2.20;;;;;;;;;;5073277;28;20032;-76
2022/11/22 07:50:45;;;;;;;3.97;2.03;;;;;;;;;;5072123;28;20036;-76
2022/11/22 07:53:12;;;;;;;4.05;2.10;;;;;;;;;;5072579;28;20038;-76
2022/11/22 07:55:38;;;;;;;4.80;3.10;;;;;;;;;;5073072;28;20028;-75
2022/11/22 07:58:04;;;;;;;6.93;3.28;;;;;;;;;;5071586;28;20027;-75
2022/11/22 08:00:31;;;;;;;4.53;2.00;;;;;;;;;;5079806;28;20027;-75
2022/11/22 08:02:58;;;;;;;32.33;14.45;;;;;;;;;;5106107;28;20111;-75
2022/11/22 08:05:24;;;;;;;3.28;2.25;;;;;;;;;;5110124;28;20033;-75
2022/11/22 08:07:51;;;;;;;1.65;1.20;;;;;;;;;;5091210;28;20028;-75
2022/11/22 08:10:18;;;;;;;9.13;4.25;;;;;;;;;;5091712;28;20020;-75
2022/11/22 08:12:45;;;;;;;23.73;9.63;;;;;;;;;;5090761;28;20054;-75
2022/11/22 08:15:13;;;;;;;13.88;7.03;;;;;;;;;;5091749;28;20400;-75
2022/11/22 08:17:39;;;;;;;8.25;3.72;;;;;;;;;;5091585;28;20040;-75
2022/11/22 08:20:07;;;;;;;2.42;1.10;;;;;;;;;;5088163;28;20042;-75
2022/11/22 08:22:34;;;;;;;6.07;2.92;;;;;;;;;;5086846;28;20019;-75
2022/11/22 08:25:01;;;;;;;3.20;1.25;;;;;;;;;;5080636;28;20028;-75
2022/11/22 08:27:27;;;;;;;2.75;1.30;;;;;;;;;;5090452;28;20017;-75
2022/11/22 08:29:53;;;;;;;1.70;1.10;;;;;;;;;;5108209;28;20032;-75
2022/11/22 08:32:19;;;;;;;3.45;1.85;;;;;;;;;;5080873;28;20025;-75
2022/11/22 08:34:46;;;;;;;1.10;0.68;;;;;;;;;;5071077;28;20025;-75
2022/11/22 08:37:12;;;;;;;3.22;1.05;;;;;;;;;;5070228;28;20016;-75
2022/11/22 08:39:38;;;;;;;1.48;0.98;;;;;;;;;;5070377;28;20059;-75
2022/11/22 08:42:05;;;;;;;0.93;0.60;;;;;;;;;;5070003;28;20032;-75
2022/11/22 08:44:32;;;;;;;1.60;0.60;;;;;;;;;;5099287;28;20030;-75
2022/11/22 08:46:58;;;;;;;3.65;2.20;;;;;;;;;;5106285;28;20060;-75
2022/11/22 08:49:24;;;;;;;0.35;0.30;;;;;;;;;;5090804;28;20282;-75
2022/11/22 08:51:51;;;;;;;0.63;0.50;;;;;;;;;;5079490;28;20032;-75
2022/11/22 08:54:17;;;;;;;1.17;0.35;;;;;;;;;;5081480;28;20013;-74
2022/11/22 08:56:43;;;;;;;2.03;0.60;;;;;;;;;;5094552;28;20027;-74
2022/11/22 08:59:10;;;;;;;0.77;0.60;;;;;;;;;;5093861;28;20042;-74
2022/11/22 09:01:36;;;;;;;2.83;1.90;;;;;;;;;;5105733;28;20411;-73
2022/11/22 09:04:02;;;;;;;2.30;0.88;;;;;;;;;;5114919;28;20046;-73
2022/11/22 09:06:30;;;;;;;2.53;1.00;;;;;;;;;;5114617;28;20396;-74
2022/11/22 09:08:57;;;;;;;1.63;0.85;;;;;;;;;;5114063;28;20031;-74
2022/11/22 09:11:23;;;;;;;3.65;1.88;;;;;;;;;;5114750;28;20034;-74
2022/11/22 09:13:49;;;;;;;6.70;2.72;;;;;;;;;;5100864;28;20024;-75
2022/11/22 09:16:17;;;;;;;3.03;1.55;;;;;;;;;;5094068;28;20485;-75
2022/11/22 09:18:44;;;;;;;3.17;0.90;;;;;;;;;;5093904;28;20022;-74
2022/11/22 09:21:15;;;;;;;1.45;0.80;;;;;;;;;;5109466;28;20019;-75
2022/11/22 09:23:45;;;;;;;2.28;0.60;;;;;;;;;;5114328;28;20050;-74
2022/11/22 09:26:12;;;;;;;5.13;2.08;;;;;;;;;;5114391;28;20020;-74
2022/11/22 09:28:39;;;;;;;1.52;0.80;;;;;;;;;;5113509;28;20026;-74
2022/11/22 09:31:09;;;;;;;5.00;1.70;;;;;;;;;;5114051;28;20016;-74
2022/11/22 09:33:37;;;;;;;7.85;1.70;;;;;;;;;;5114242;28;20030;-74
2022/11/22 09:36:04;;;;;;;3.40;2.05;;;;;;;;;;5114220;28;20024;-74
2022/11/22 09:38:31;;;;;;;13.70;3.80;;;;;;;;;;5113836;28;20050;-74
2022/11/22 09:40:58;;;;;;;3.38;2.20;;;;;;;;;;5104635;28;20042;-74
2022/11/22 09:43:39;;;;;;;3.97;2.03;;;;;;;;;;5093349;28;20020;-74
2022/11/22 09:46:11;;;;;;;6.15;3.33;;;;;;;;;;5093503;28;20093;-74
2022/11/22 09:48:55;;;;;;;8.35;3.58;;;;;;;;;;5093410;28;20030;-73
2022/11/22 09:51:26;;;;;;;5.28;2.60;;;;;;;;;;5070169;28;20028;-74
2022/11/22 09:54:03;;;;;;;4.85;2.30;;;;;;;;;;5073043;28;20035;-74
2022/11/22 09:56:30;;;;;;;5.50;3.53;;;;;;;;;;5087660;28;20030;-74
2022/11/22 09:59:19;;;;;;;5.90;3.60;;;;;;;;;;5113261;28;20043;-74
2022/11/22 10:01:50;;;;;;;7.93;4.82;;;;;;;;;;5082276;28;20017;-74
2022/11/22 10:04:20;;;;;;;2.88;1.60;;;;;;;;;;5109334;28;20024;-75
2022/11/22 10:06:49;;;;;;;4.10;1.70;;;;;;;;;;5092126;28;20446;-74
2022/11/22 10:09:30;;;;;;;5.00;2.30;;;;;;;;;;5095302;28;20424;-75
2022/11/22 10:11:59;;;;;;;4.15;1.80;;;;;;;;;;5094975;28;20028;-74
2022/11/22 10:14:45;;;;;;;3.72;1.85;;;;;;;;;;5065665;28;20024;-74
2022/11/22 10:17:14;;;;;;;2.78;1.60;;;;;;;;;;5072671;28;20109;-74
2022/11/22 10:19:51;;;;;;;2.63;1.17;;;;;;;;;;5057800;28;20032;-75
2022/11/22 10:22:18;;;;;;;2.25;1.25;;;;;;;;;;5092590;28;20083;-74
2022/11/22 10:24:44;;;;;;;2.25;0.90;;;;;;;;;;5067803;28;20025;-75
2022/11/22 10:27:12;;;;;;;2.67;1.00;;;;;;;;;;5067564;28;20029;-75
2022/11/22 10:29:39;;;;;;;4.75;1.67;;;;;;;;;;5072328;28;20039;-74
2022/11/22 10:32:12;;;;;;;2.08;1.30;;;;;;;;;;5072305;28;20501;-75
2022/11/22 10:34:39;;;;;;;18.67;8.55;;;;;;;;;;5072265;28;20036;-75
2022/11/22 10:37:24;;;;;;;18.05;8.38;;;;;;;;;;5079340;28;20374;-74
2022/11/22 10:40:10;;;;;;;7.88;3.15;;;;;;;;;;5088086;28;20085;-74
2022/11/22 10:42:40;;;;;;;3.50;1.80;;;;;;;;;;5077190;28;20032;-75
2022/11/22 10:45:23;;;;;;;1.48;1.02;;;;;;;;;;5092436;28;20020;-77
2022/11/22 10:47:53;;;;;;;9.27;5.20;;;;;;;;;;5092065;28;20024;-77
2022/11/22 10:50:22;;;;;;;14.00;6.95;;;;;;;;;;5092278;28;20020;-76
2022/11/22 10:52:57;;;;;;;5.70;2.30;;;;;;;;;;5092099;28;20032;-77
2022/11/22 10:55:24;;;;;;;2.63;1.33;;;;;;;;;;5091791;28;20573;-76
2022/11/22 10:58:09;;;;;;;5.15;2.70;;;;;;;;;;5092100;28;20022;-76
2022/11/22 11:00:38;;;;;;;4.32;2.78;;;;;;;;;;5091874;28;20036;-76
2022/11/22 11:03:24;;;;;;;3.65;2.13;;;;;;;;;;5071916;28;20020;-76
2022/11/22 11:05:50;;;;;;;7.75;4.25;;;;;;;;;;5082138;28;20016;-77
2022/11/22 11:08:29;;;;;;;5.25;3.22;;;;;;;;;;5092140;28;20028;-76
2022/11/22 11:10:56;;;;;;;8.85;5.28;;;;;;;;;;5091571;28;20028;-77
2022/11/22 11:13:25;;;;;;;1.58;0.75;;;;;;;;;;5092039;28;20089;-76
2022/11/22 11:15:53;;;;;;;3.03;1.55;;;;;;;;;;5092054;28;20030;-77
2022/11/22 11:18:22;;;;;;;4.88;2.95;;;;;;;;;;5091723;28;20020;-75
2022/11/22 11:20:50;;;;;;;5.68;1.10;;;;;;;;;;5091928;28;20036;-74
2022/11/22 11:23:16;;;;;;;1.90;0.88;;;;;;;;;;5091695;28;20020;-74
2022/11/22 11:25:43;;;;;;;2.15;1.20;;;;;;;;;;5091219;28;20050;-74
2022/11/22 11:28:18;;;;;;;5.57;3.00;;;;;;;;;;5091753;28;20027;-74
2022/11/22 11:30:55;;;;;;;1.90;1.10;;;;;;;;;;5091365;28;20020;-76
2022/11/22 11:33:27;;;;;;;2.42;1.20;;;;;;;;;;5091991;28;20028;-76
2022/11/22 11:35:55;;;;;;;2.25;1.35;;;;;;;;;;5091767;28;20353;-76
2022/11/22 11:38:32;;;;;;;2.38;1.48;;;;;;;;;;5073018;28;20420;-76
2022/11/22 11:41:16;;;;;;;2.75;1.08;;;;;;;;;;5091248;28;20038;-76
2022/11/22 11:43:43;;;;;;;1.48;0.75;;;;;;;;;;5091421;28;20518;-76
2022/11/22 11:46:17;;;;;;;4.50;1.88;;;;;;;;;;5091481;28;20385;-74
2022/11/22 11:48:43;;;;;;;6.93;1.60;;;;;;;;;;5091762;28;20030;-74
2022/11/22 11:51:25;;;;;;;2.97;1.15;;;;;;;;;;5091128;28;20028;-74
2022/11/22 11:53:57;;;;;;;6.07;2.50;;;;;;;;;;5091114;28;20024;-76
2022/11/22 11:56:34;;;;;;;5.85;2.30;;;;;;;;;;5091385;28;20497;-76
2022/11/22 11:59:04;;;;;;;6.47;2.20;;;;;;;;;;5091329;28;20477;-76
2022/11/22 12:01:32;;;;;;;6.82;2.35;;;;;;;;;;5091765;28;20024;-76
2022/11/22 12:04:01;;;;;;;2.63;1.48;;;;;;;;;;5091362;28;20041;-76
2022/11/22 12:06:31;;;;;;;5.57;1.70;;;;;;;;;;5091225;28;20028;-74
2022/11/22 12:08:58;;;;;;;7.60;2.30;;;;;;;;;;5090793;28;20034;-74
2022/11/22 12:11:33;;;;;;;3.80;1.52;;;;;;;;;;5091574;28;20332;-74
2022/11/22 12:14:02;;;;;;;3.63;1.35;;;;;;;;;;5091487;28;20020;-75
2022/11/22 12:16:38;;;;;;;5.15;1.52;;;;;;;;;;5091418;28;20030;-74
2022/11/22 12:19:22;;;;;;;5.13;1.40;;;;;;;;;;5089231;28;20032;-74
2022/11/22 12:21:56;;;;;;;3.30;1.95;;;;;;;;;;5070730;28;20392;-75
2022/11/22 12:24:32;;;;;;;4.45;2.22;;;;;;;;;;5070923;28;20501;-74
2022/11/22 12:26:58;;;;;;;4.07;1.30;;;;;;;;;;5073737;28;20024;-74
2022/11/22 12:29:25;;;;;;;5.10;2.15;;;;;;;;;;5075680;28;20438;-75
2022/11/22 12:32:01;;;;;;;3.75;1.80;;;;;;;;;;5058059;28;20020;-75
2022/11/22 12:34:33;;;;;;;3.70;1.60;;;;;;;;;;5075931;28;20021;-74
2022/11/22 12:37:17;;;;;;;4.13;1.42;;;;;;;;;;5077012;28;20021;-75
2022/11/22 12:39:48;;;;;;;2.45;1.33;;;;;;;;;;5087588;28;20442;-74
2022/11/22 12:42:20;;;;;;;4.72;1.60;;;;;;;;;;5084394;28;20016;-74
2022/11/22 12:44:48;;;;;;;3.65;1.42;;;;;;;;;;5094879;28;20132;-74
2022/11/22 12:47:20;;;;;;;5.63;1.60;;;;;;;;;;5080416;28;20035;-75
2022/11/22 12:49:57;;;;;;;7.78;3.47;;;;;;;;;;5074417;28;20032;-74
2022/11/22 12:52:37;;;;;;;16.92;4.88;;;;;;;;;;5073287;28;20013;-74
2022/11/22 12:55:22;;;;;;;7.57;3.88;;;;;;;;;;5087568;28;20118;-74
2022/11/22 12:57:58;;;;;;;12.05;4.20;;;;;;;;;;5093581;28;20028;-74
2022/11/22 13:00:26;;;;;;;12.82;4.97;;;;;;;;;;5073766;28;20025;-74
2022/11/22 13:02:53;;;;;;;12.38;2.97;;;;;;;;;;5073921;28;20037;-75
2022/11/22 13:05:24;;;;;;;5.53;1.80;;;;;;;;;;5081125;28;20415;-74
2022/11/22 13:08:00;;;;;;;7.80;1.90;;;;;;;;;;5093228;28;20020;-74
2022/11/22 13:10:49;;;;;;;4.10;2.08;;;;;;;;;;5092853;28;20039;-75
2022/11/22 13:13:31;;;;;;;3.65;1.10;;;;;;;;;;5093868;28;20035;-75
2022/11/22 13:15:59;;;;;;;4.32;1.50;;;;;;;;;;5093660;28;20020;-75
2022/11/22 13:18:27;;;;;;;4.95;1.60;;;;;;;;;;5093054;28;20032;-75
2022/11/22 13:20:56;;;;;;;3.42;1.80;;;;;;;;;;5083594;28;20040;-75
2022/11/22 13:23:23;;;;;;;3.65;1.60;;;;;;;;;;5088371;28;20058;-75
2022/11/22 13:26:21;;;;;;;1.98;1.30;;;;;;;;;;5093762;28;20024;-75
2022/11/22 13:28:48;;;;;;;3.75;2.05;;;;;;;;;;5011434;28;20489;-75
2022/11/22 13:31:16;;;;;;;4.85;2.28;;;;;;;;;;5014557;28;20032;-75
2022/11/22 13:33:51;;;;;;;2.97;1.15;;;;;;;;;;5010705;28;20506;-74
2022/11/22 13:36:27;;;;;;;1.95;0.90;;;;;;;;;;4995228;28;20029;-74
2022/11/22 13:38:54;;;;;;;2.92;1.20;;;;;;;;;;5000313;28;20426;-75
2022/11/22 13:41:37;;;;;;;2.17;1.25;;;;;;;;;;5010816;28;20568;-75
2022/11/22 13:44:16;;;;;;;3.28;1.80;;;;;;;;;;5011228;28;20034;-75
2022/11/22 13:46:51;;;;;;;2.53;1.33;;;;;;;;;;5011145;28;20052;-75
2022/11/22 13:49:39;;;;;;;5.00;1.70;;;;;;;;;;5010561;28;20034;-74
2022/11/22 13:52:26;;;;;;;3.92;1.25;;;;;;;;;;5010948;28;20050;-75
2022/11/22 13:54:52;;;;;;;4.97;1.17;;;;;;;;;;5010771;28;20030;-75
2022/11/22 13:57:38;;;;;;;4.30;1.30;;;;;;;;;;5010658;28;20095;-77
2022/11/22 14:00:13;;;;;;;3.28;1.10;;;;;;;;;;5010816;28;20511;-77
2022/11/22 14:02:46;;;;;;;4.22;1.65;;;;;;;;;;5010518;28;20032;-76
2022/11/22 14:05:21;;;;;;;4.53;1.30;;;;;;;;;;5040111;28;20139;-77
2022/11/22 14:07:55;;;;;;;3.65;1.30;;;;;;;;;;5072469;28;20023;-77
2022/11/22 14:10:26;;;;;;;2.67;0.90;;;;;;;;;;5072550;28;20526;-76
2022/11/22 14:13:03;;;;;;;3.15;0.80;;;;;;;;;;5054569;28;20515;-76
2022/11/22 14:15:38;;;;;;;4.00;1.20;;;;;;;;;;5072285;28;20027;-77
2022/11/22 14:18:14;;;;;;;3.00;1.00;;;;;;;;;;5072191;28;20030;-76
2022/11/22 14:21:00;;;;;;;3.38;1.05;;;;;;;;;;5072883;28;20038;-75
2022/11/22 14:23:34;;;;;;;3.15;1.20;;;;;;;;;;5090807;28;20028;-76
2022/11/22 14:26:03;;;;;;;3.72;0.82;;;;;;;;;;5092456;28;20404;-77
2022/11/22 14:28:48;;;;;;;3.72;1.05;;;;;;;;;;5092227;28;20028;-74
2022/11/22 14:31:26;;;;;;;1.52;0.90;;;;;;;;;;5089495;28;20396;-74
2022/11/22 14:34:10;;;;;;;2.35;1.00;;;;;;;;;;5091790;28;20022;-75
2022/11/22 14:36:37;;;;;;;2.33;0.85;;;;;;;;;;5091850;28;20115;-74
2022/11/22 14:39:23;;;;;;;3.40;0.90;;;;;;;;;;5091972;28;20057;-75
2022/11/22 14:41:50;;;;;;;4.43;1.55;;;;;;;;;;5076029;28;20043;-74
2022/11/22 14:44:18;;;;;;;1.60;1.00;;;;;;;;;;5071912;28;20081;-74
2022/11/22 14:47:04;;;;;;;3.30;1.00;;;;;;;;;;5071732;28;20012;-75
2022/11/22 14:49:36;;;;;;;4.75;2.03;;;;;;;;;;5071555;28;20373;-75
2022/11/22 14:52:05;;;;;;;1.55;0.98;;;;;;;;;;5071900;28;20017;-74
2022/11/22 14:54:45;;;;;;;3.55;1.23;;;;;;;;;;5071794;28;20039;-74
2022/11/22 14:57:15;;;;;;;6.18;2.10;;;;;;;;;;5071522;28;20032;-75
2022/11/22 14:59:41;;;;;;;6.60;3.07;;;;;;;;;;5071375;28;20046;-75
2022/11/22 15:02:26;;;;;;;5.65;2.22;;;;;;;;;;5077853;28;20024;-74
2022/11/22 15:05:11;;;;;;;4.65;2.75;;;;;;;;;;5090513;28;20040;-75
2022/11/22 15:07:58;;;;;;;7.57;2.63;;;;;;;;;;5091802;28;20024;-75
2022/11/22 15:10:34;;;;;;;6.93;3.08;;;;;;;;;;5091233;28;20043;-75